CheckWX is a tool to help pilots better visualize weather data.  It is not intended as a substitute for an official pre-flight weather briefing.

09:54:08 UTC

KMEM METAR
Memphis International Airport
Memphis, Tennessee, USA
Current

34 mins ago

KMEM 260920Z 34008KT 10SM BKN008 BKN015 OVC020 06/04 A3000 RMK AO2 RAE0855 P0000 T00560044
Observed
Feb-26 @ 09:20 UTC
Wind
  • 340° at 8 KTS
Visibility
10 SM
Flight Rules
IFR
Cloud Levels
  • Broken at 800' AGL
  • Broken at 1,500' AGL
  • Overcast at 2,000' AGL
Temperature
C / 43°F
Dewpoint
C / 39°F
Humidity
87%
Altimeter
30" Hg
Pressure
1015.92 hPa
Current Rain
0.01"
Previous

41 mins ago

KMEM 260913Z 34007KT 10SM SCT008 BKN015 OVC020 06/04 A3000 RMK AO2 RAE0855 P0000 T00560039
Observed
Feb-26 @ 09:13 UTC
Wind
  • 340° at 7 KTS
Visibility
10 SM
Flight Rules
MVFR
Cloud Levels
  • Scattered at 800' AGL
  • Broken at 1,500' AGL
  • Overcast at 2,000' AGL
Temperature
C / 43°F
Dewpoint
C / 39°F
Humidity
87%
Altimeter
30" Hg
Pressure
1015.92 hPa
Current Rain
0.01"
Previous

60 mins ago

KMEM 260854Z 35007KT 8SM -RA BKN008 BKN011 OVC015 06/04 A3000 RMK AO2 SLP157 P0001 60001 T00560044 56004
Observed
Feb-26 @ 08:54 UTC
Wind
  • 350° at 7 KTS
Visibility
8 SM
Flight Rules
IFR
Conditions
Light Rain
Cloud Levels
  • Broken at 800' AGL
  • Broken at 1,100' AGL
  • Overcast at 1,500' AGL
Temperature
C / 43°F
Dewpoint
C / 39°F
Humidity
87%
Altimeter
30" Hg
Pressure
1015.92 hPa
Current Rain
0.01"